sensor_id;sensor_type;location;lat;lon;timestamp;pressure;altitude;pressure_sealevel;temperature;humidity
78894;BME280;68282;42.698;23.350;2024-02-23T00:04:25;95215.16;;;8.66;51.19
78894;BME280;68282;42.698;23.350;2024-02-23T00:17:34;95214.25;;;8.73;52.35
78894;BME280;68282;42.698;23.350;2024-02-23T00:20:01;95211.38;;;8.68;52.04
78894;BME280;68282;42.698;23.350;2024-02-23T00:22:27;95199.38;;;8.75;52.10
78894;BME280;68282;42.698;23.350;2024-02-23T00:24:52;95199.53;;;8.80;52.32
78894;BME280;68282;42.698;23.350;2024-02-23T00:27:18;95194.41;;;8.72;51.74
78894;BME280;68282;42.698;23.350;2024-02-23T00:29:43;95194.31;;;8.79;51.88
78894;BME280;68282;42.698;23.350;2024-02-23T00:32:09;95205.66;;;8.76;51.57
78894;BME280;68282;42.698;23.350;2024-02-23T00:34:35;95180.06;;;8.84;51.71
78894;BME280;68282;42.698;23.350;2024-02-23T00:37:00;95185.66;;;8.89;51.86
78894;BME280;68282;42.698;23.350;2024-02-23T00:39:27;95188.47;;;8.94;51.25
78894;BME280;68282;42.698;23.350;2024-02-23T00:42:11;95184.25;;;8.98;51.76
78894;BME280;68282;42.698;23.350;2024-02-23T00:44:36;95191.78;;;8.96;51.61
78894;BME280;68282;42.698;23.350;2024-02-23T00:47:02;95196.03;;;8.92;51.18
78894;BME280;68282;42.698;23.350;2024-02-23T00:49:29;95194.03;;;8.99;51.02
78894;BME280;68282;42.698;23.350;2024-02-23T00:51:55;95181.69;;;9.03;51.42
78894;BME280;68282;42.698;23.350;2024-02-23T00:54:21;95176.47;;;9.02;51.01
78894;BME280;68282;42.698;23.350;2024-02-23T00:56:47;95165.88;;;9.00;52.15
78894;BME280;68282;42.698;23.350;2024-02-23T00:59:12;95159.03;;;8.97;51.84
78894;BME280;68282;42.698;23.350;2024-02-23T01:01:38;95169.19;;;9.02;51.77
78894;BME280;68282;42.698;23.350;2024-02-23T01:04:04;95165.16;;;9.05;51.76
78894;BME280;68282;42.698;23.350;2024-02-23T01:06:29;95162.44;;;8.93;51.25
78894;BME280;68282;42.698;23.350;2024-02-23T01:08:55;95168.16;;;8.85;50.82
78894;BME280;68282;42.698;23.350;2024-02-23T01:11:22;95162.66;;;8.91;51.09
78894;BME280;68282;42.698;23.350;2024-02-23T01:13:47;95166.91;;;8.99;51.26
78894;BME280;68282;42.698;23.350;2024-02-23T01:16:13;95167.03;;;8.92;51.66
78894;BME280;68282;42.698;23.350;2024-02-23T01:18:38;95168.22;;;8.96;51.36
78894;BME280;68282;42.698;23.350;2024-02-23T01:21:04;95148.88;;;8.93;51.22
78894;BME280;68282;42.698;23.350;2024-02-23T01:23:29;95145.56;;;8.91;51.05
78894;BME280;68282;42.698;23.350;2024-02-23T01:25:55;95157.59;;;8.95;51.68
78894;BME280;68282;42.698;23.350;2024-02-23T01:28:21;95155.38;;;9.04;51.34
78894;BME280;68282;42.698;23.350;2024-02-23T01:30:47;95135.06;;;8.94;51.88
78894;BME280;68282;42.698;23.350;2024-02-23T01:33:12;95131.16;;;8.90;51.47
78894;BME280;68282;42.698;23.350;2024-02-23T01:35:38;95143.06;;;8.89;51.90
78894;BME280;68282;42.698;23.350;2024-02-23T01:38:03;95145.31;;;8.92;52.26
78894;BME280;68282;42.698;23.350;2024-02-23T01:40:29;95142.75;;;8.97;51.63
78894;BME280;68282;42.698;23.350;2024-02-23T01:43:04;95148.75;;;9.00;51.05
78894;BME280;68282;42.698;23.350;2024-02-23T01:45:30;95134.13;;;9.01;51.00
78894;BME280;68282;42.698;23.350;2024-02-23T01:47:56;95125.28;;;8.93;51.56
78894;BME280;68282;42.698;23.350;2024-02-23T01:50:23;95135.44;;;8.98;51.42
78894;BME280;68282;42.698;23.350;2024-02-23T01:52:48;95145.22;;;8.99;51.56
78894;BME280;68282;42.698;23.350;2024-02-23T01:55:20;95138.84;;;8.93;50.76
78894;BME280;68282;42.698;23.350;2024-02-23T01:57:46;95129.16;;;8.86;51.28
78894;BME280;68282;42.698;23.350;2024-02-23T02:00:16;95123.38;;;8.94;51.35
78894;BME280;68282;42.698;23.350;2024-02-23T02:02:43;95121.88;;;8.98;51.05
78894;BME280;68282;42.698;23.350;2024-02-23T02:05:09;95117.38;;;8.92;51.25
78894;BME280;68282;42.698;23.350;2024-02-23T02:07:35;95122.91;;;8.97;51.32
78894;BME280;68282;42.698;23.350;2024-02-23T02:10:00;95120.19;;;8.85;50.65
78894;BME280;68282;42.698;23.350;2024-02-23T02:12:27;95120.09;;;8.92;50.75
78894;BME280;68282;42.698;23.350;2024-02-23T02:14:52;95107.09;;;8.94;50.73
78894;BME280;68282;42.698;23.350;2024-02-23T02:17:18;95109.34;;;8.97;51.26
78894;BME280;68282;42.698;23.350;2024-02-23T02:19:50;95117.03;;;9.00;51.24
78894;BME280;68282;42.698;23.350;2024-02-23T02:22:15;95120.34;;;9.02;51.57
78894;BME280;68282;42.698;23.350;2024-02-23T02:24:41;95120.09;;;8.92;51.20
78894;BME280;68282;42.698;23.350;2024-02-23T02:27:09;95125.38;;;8.98;51.06
78894;BME280;68282;42.698;23.350;2024-02-23T02:29:35;95108.66;;;8.90;51.44
78894;BME280;68282;42.698;23.350;2024-02-23T02:32:01;95111.97;;;8.92;51.71
78894;BME280;68282;42.698;23.350;2024-02-23T02:34:27;95119.59;;;8.95;51.32
78894;BME280;68282;42.698;23.350;2024-02-23T02:36:54;95114.28;;;8.88;51.31
78894;BME280;68282;42.698;23.350;2024-02-23T02:39:19;95113.13;;;8.84;52.09
78894;BME280;68282;42.698;23.350;2024-02-23T02:41:45;95117.25;;;8.87;51.64
78894;BME280;68282;42.698;23.350;2024-02-23T02:44:10;95115.00;;;8.84;51.28
78894;BME280;68282;42.698;23.350;2024-02-23T02:46:38;95123.88;;;8.91;51.70
78894;BME280;68282;42.698;23.350;2024-02-23T02:49:04;95111.47;;;8.83;52.10
78894;BME280;68282;42.698;23.350;2024-02-23T02:51:29;95128.19;;;8.80;51.75
78894;BME280;68282;42.698;23.350;2024-02-23T02:53:54;95124.97;;;8.71;51.78
78894;BME280;68282;42.698;23.350;2024-02-23T02:56:20;95123.91;;;8.72;51.97
78894;BME280;68282;42.698;23.350;2024-02-23T02:58:45;95133.84;;;8.78;51.99
78894;BME280;68282;42.698;23.350;2024-02-23T03:01:11;95120.50;;;8.77;51.44
78894;BME280;68282;42.698;23.350;2024-02-23T03:03:37;95111.34;;;8.90;51.06
78894;BME280;68282;42.698;23.350;2024-02-23T03:06:03;95128.69;;;8.89;51.55
78894;BME280;68282;42.698;23.350;2024-02-23T03:08:28;95123.50;;;8.87;51.91
78894;BME280;68282;42.698;23.350;2024-02-23T03:10:54;95128.69;;;8.89;51.77
78894;BME280;68282;42.698;23.350;2024-02-23T03:13:19;95139.19;;;8.97;51.89
78894;BME280;68282;42.698;23.350;2024-02-23T03:15:45;95137.19;;;8.92;51.39
78894;BME280;68282;42.698;23.350;2024-02-23T03:18:10;95121.16;;;8.91;51.39
78894;BME280;68282;42.698;23.350;2024-02-23T03:20:36;95116.63;;;8.85;51.47
78894;BME280;68282;42.698;23.350;2024-02-23T03:23:01;95114.28;;;8.76;51.59
78894;BME280;68282;42.698;23.350;2024-02-23T03:25:29;95134.66;;;8.79;52.11
78894;BME280;68282;42.698;23.350;2024-02-23T03:27:54;95131.50;;;8.82;52.17
78894;BME280;68282;42.698;23.350;2024-02-23T03:30:21;95136.31;;;8.80;52.27
78894;BME280;68282;42.698;23.350;2024-02-23T03:32:46;95134.56;;;8.74;52.55
78894;BME280;68282;42.698;23.350;2024-02-23T03:35:12;95143.16;;;8.82;52.76
78894;BME280;68282;42.698;23.350;2024-02-23T03:37:38;95137.16;;;8.80;52.63
78894;BME280;68282;42.698;23.350;2024-02-23T03:40:07;95124.97;;;8.71;52.87
78894;BME280;68282;42.698;23.350;2024-02-23T03:42:33;95124.84;;;8.66;52.83
78894;BME280;68282;42.698;23.350;2024-02-23T03:44:58;95120.72;;;8.63;53.25
78894;BME280;68282;42.698;23.350;2024-02-23T03:47:24;95121.22;;;8.72;53.13
78894;BME280;68282;42.698;23.350;2024-02-23T03:49:49;95115.34;;;8.75;52.68
78894;BME280;68282;42.698;23.350;2024-02-23T03:52:15;95124.75;;;8.73;52.36
78894;BME280;68282;42.698;23.350;2024-02-23T03:54:41;95125.13;;;8.76;52.50
78894;BME280;68282;42.698;23.350;2024-02-23T03:57:06;95126.88;;;8.82;52.50
78894;BME280;68282;42.698;23.350;2024-02-23T03:59:32;95124.41;;;8.81;52.49
78894;BME280;68282;42.698;23.350;2024-02-23T04:01:57;95128.28;;;8.73;52.08
78894;BME280;68282;42.698;23.350;2024-02-23T04:04:23;95124.97;;;8.71;51.91
78894;BME280;68282;42.698;23.350;2024-02-23T04:06:48;95129.94;;;8.74;52.31
78894;BME280;68282;42.698;23.350;2024-02-23T04:09:14;95132.66;;;8.74;52.25
78894;BME280;68282;42.698;23.350;2024-02-23T04:11:39;95120.41;;;8.72;52.12
78894;BME280;68282;42.698;23.350;2024-02-23T04:14:05;95132.22;;;8.89;52.59
78894;BME280;68282;42.698;23.350;2024-02-23T04:16:31;95142.84;;;8.91;52.91
78894;BME280;68282;42.698;23.350;2024-02-23T04:18:57;95143.91;;;8.90;52.48
78894;BME280;68282;42.698;23.350;2024-02-23T04:21:23;95138.47;;;8.90;52.12
78894;BME280;68282;42.698;23.350;2024-02-23T04:23:48;95134.72;;;8.91;52.01
78894;BME280;68282;42.698;23.350;2024-02-23T04:26:14;95140.13;;;8.91;52.01
78894;BME280;68282;42.698;23.350;2024-02-23T04:28:40;95139.53;;;8.89;52.17
78894;BME280;68282;42.698;23.350;2024-02-23T04:31:06;95143.91;;;8.90;51.53
78894;BME280;68282;42.698;23.350;2024-02-23T04:33:31;95123.47;;;8.75;52.00
78894;BME280;68282;42.698;23.350;2024-02-23T04:35:58;95130.31;;;8.78;52.38
78894;BME280;68282;42.698;23.350;2024-02-23T04:38:23;95127.59;;;8.78;52.06
78894;BME280;68282;42.698;23.350;2024-02-23T04:40:49;95140.44;;;8.82;52.03
78894;BME280;68282;42.698;23.350;2024-02-23T04:43:14;95132.31;;;8.82;51.58
78894;BME280;68282;42.698;23.350;2024-02-23T04:45:40;95143.16;;;8.82;51.51
78894;BME280;68282;42.698;23.350;2024-02-23T04:48:06;95140.34;;;8.77;51.94
78894;BME280;68282;42.698;23.350;2024-02-23T04:50:32;95136.91;;;8.70;51.78
78894;BME280;68282;42.698;23.350;2024-02-23T04:52:58;95134.06;;;8.65;51.76
78894;BME280;68282;42.698;23.350;2024-02-23T04:55:23;95147.28;;;8.73;51.63
78894;BME280;68282;42.698;23.350;2024-02-23T04:57:49;95141.03;;;8.73;51.72
78894;BME280;68282;42.698;23.350;2024-02-23T05:00:14;95160.91;;;8.66;51.92
78894;BME280;68282;42.698;23.350;2024-02-23T05:02:40;95157.41;;;8.66;51.36
78894;BME280;68282;42.698;23.350;2024-02-23T05:05:06;95157.91;;;8.75;51.41
78894;BME280;68282;42.698;23.350;2024-02-23T05:07:31;95146.00;;;8.76;51.39
78894;BME280;68282;42.698;23.350;2024-02-23T05:09:57;95146.66;;;8.71;51.69
78894;BME280;68282;42.698;23.350;2024-02-23T05:12:23;95147.75;;;8.70;51.84
78894;BME280;68282;42.698;23.350;2024-02-23T05:14:49;95157.50;;;8.59;51.66
78894;BME280;68282;42.698;23.350;2024-02-23T05:17:14;95170.94;;;8.66;51.98
78894;BME280;68282;42.698;23.350;2024-02-23T05:19:40;95168.84;;;8.68;52.11
78894;BME280;68282;42.698;23.350;2024-02-23T05:22:05;95169.97;;;8.60;51.97
78894;BME280;68282;42.698;23.350;2024-02-23T05:24:32;95166.13;;;8.68;51.89
78894;BME280;68282;42.698;23.350;2024-02-23T05:26:57;95166.34;;;8.66;51.67
78894;BME280;68282;42.698;23.350;2024-02-23T05:29:28;95162.09;;;8.59;51.97
78894;BME280;68282;42.698;23.350;2024-02-23T05:31:53;95180.22;;;8.58;52.33
78894;BME280;68282;42.698;23.350;2024-02-23T05:34:19;95173.63;;;8.54;52.47
78894;BME280;68282;42.698;23.350;2024-02-23T05:36:45;95178.50;;;8.45;52.77
78894;BME280;68282;42.698;23.350;2024-02-23T05:39:12;95184.13;;;8.44;52.71
78894;BME280;68282;42.698;23.350;2024-02-23T05:41:38;95162.56;;;8.37;52.51
78894;BME280;68282;42.698;23.350;2024-02-23T05:44:04;95180.16;;;8.46;52.99
78894;BME280;68282;42.698;23.350;2024-02-23T05:46:34;95175.44;;;8.42;52.87
78894;BME280;68282;42.698;23.350;2024-02-23T05:49:01;95182.19;;;8.32;52.57
78894;BME280;68282;42.698;23.350;2024-02-23T05:51:28;95195.84;;;8.26;53.42
78894;BME280;68282;42.698;23.350;2024-02-23T05:53:58;95209.97;;;8.28;52.58
78894;BME280;68282;42.698;23.350;2024-02-23T05:56:23;95200.34;;;8.32;53.42
78894;BME280;68282;42.698;23.350;2024-02-23T05:58:50;95187.41;;;8.34;52.73
78894;BME280;68282;42.698;23.350;2024-02-23T06:01:17;95190.47;;;8.38;53.07
78894;BME280;68282;42.698;23.350;2024-02-23T06:03:42;95200.66;;;8.24;53.07
78894;BME280;68282;42.698;23.350;2024-02-23T06:06:08;95214.03;;;8.18;53.55
78894;BME280;68282;42.698;23.350;2024-02-23T06:08:34;95196.53;;;8.21;53.39
78894;BME280;68282;42.698;23.350;2024-02-23T06:11:00;95181.25;;;8.27;53.58
78894;BME280;68282;42.698;23.350;2024-02-23T06:13:25;95196.34;;;8.34;53.88
78894;BME280;68282;42.698;23.350;2024-02-23T06:15:51;95208.72;;;8.30;52.96
78894;BME280;68282;42.698;23.350;2024-02-23T06:18:17;95217.72;;;8.24;52.88
78894;BME280;68282;42.698;23.350;2024-02-23T06:20:43;95216.06;;;8.23;53.01
78894;BME280;68282;42.698;23.350;2024-02-23T06:23:08;95217.91;;;8.29;53.09
78894;BME280;68282;42.698;23.350;2024-02-23T06:25:34;95219.31;;;8.32;53.39
78894;BME280;68282;42.698;23.350;2024-02-23T06:27:59;95212.41;;;8.36;53.29
78894;BME280;68282;42.698;23.350;2024-02-23T06:30:25;95220.81;;;8.46;53.01
78894;BME280;68282;42.698;23.350;2024-02-23T06:32:50;95217.44;;;8.51;52.85
78894;BME280;68282;42.698;23.350;2024-02-23T06:35:16;95216.69;;;8.62;52.87
78894;BME280;68282;42.698;23.350;2024-02-23T06:37:41;95213.13;;;8.62;52.38
78894;BME280;68282;42.698;23.350;2024-02-23T06:40:07;95202.88;;;8.64;52.88
78894;BME280;68282;42.698;23.350;2024-02-23T06:42:33;95217.78;;;8.73;52.22
78894;BME280;68282;42.698;23.350;2024-02-23T06:44:59;95204.00;;;8.75;51.89
78894;BME280;68282;42.698;23.350;2024-02-23T06:47:24;95220.75;;;8.84;51.64
78894;BME280;68282;42.698;23.350;2024-02-23T06:49:50;95226.31;;;8.89;51.65
78894;BME280;68282;42.698;23.350;2024-02-23T06:52:16;95228.34;;;8.93;51.57
78894;BME280;68282;42.698;23.350;2024-02-23T06:54:41;95216.69;;;8.93;51.45
78894;BME280;68282;42.698;23.350;2024-02-23T06:57:07;95209.38;;;8.93;51.51
78894;BME280;68282;42.698;23.350;2024-02-23T06:59:32;95233.34;;;9.08;51.02
78894;BME280;68282;42.698;23.350;2024-02-23T07:01:58;95232.88;;;9.11;51.21
78894;BME280;68282;42.698;23.350;2024-02-23T07:04:23;95211.03;;;9.06;51.21
78894;BME280;68282;42.698;23.350;2024-02-23T07:06:50;95225.25;;;9.20;50.81
78894;BME280;68282;42.698;23.350;2024-02-23T07:09:16;95223.50;;;9.26;51.34
78894;BME280;68282;42.698;23.350;2024-02-23T07:11:41;95226.94;;;9.33;51.02
78894;BME280;68282;42.698;23.350;2024-02-23T07:14:09;95218.97;;;9.20;50.98
78894;BME280;68282;42.698;23.350;2024-02-23T07:16:38;95221.34;;;9.28;51.35
78894;BME280;68282;42.698;23.350;2024-02-23T07:19:07;95228.59;;;9.34;51.36
78894;BME280;68282;42.698;23.350;2024-02-23T07:21:33;95224.47;;;9.43;51.62
78894;BME280;68282;42.698;23.350;2024-02-23T07:23:59;95212.41;;;9.39;51.08
78894;BME280;68282;42.698;23.350;2024-02-23T07:26:25;95216.19;;;9.38;51.71
78894;BME280;68282;42.698;23.350;2024-02-23T07:28:53;95205.81;;;9.35;51.70
78894;BME280;68282;42.698;23.350;2024-02-23T07:31:19;95198.03;;;9.39;51.92
78894;BME280;68282;42.698;23.350;2024-02-23T07:33:45;95195.78;;;9.48;52.06
78894;BME280;68282;42.698;23.350;2024-02-23T07:36:14;95200.16;;;9.61;52.27
78894;BME280;68282;42.698;23.350;2024-02-23T07:38:40;95208.78;;;9.57;52.17
78894;BME280;68282;42.698;23.350;2024-02-23T07:41:06;95210.91;;;9.67;52.35
78894;BME280;68282;42.698;23.350;2024-02-23T07:43:32;95213.28;;;9.75;52.57
78894;BME280;68282;42.698;23.350;2024-02-23T07:45:57;95220.47;;;9.82;52.55
78894;BME280;68282;42.698;23.350;2024-02-23T07:48:23;95218.47;;;9.89;52.18
78894;BME280;68282;42.698;23.350;2024-02-23T07:50:48;95196.28;;;9.92;52.24
78894;BME280;68282;42.698;23.350;2024-02-23T07:53:14;95209.94;;;10.09;52.62
78894;BME280;68282;42.698;23.350;2024-02-23T07:55:39;95211.47;;;10.17;52.50
78894;BME280;68282;42.698;23.350;2024-02-23T07:58:05;95220.06;;;10.26;52.13
78894;BME280;68282;42.698;23.350;2024-02-23T08:00:31;95205.56;;;10.20;52.02
78894;BME280;68282;42.698;23.350;2024-02-23T08:02:59;95204.13;;;10.29;52.27
78894;BME280;68282;42.698;23.350;2024-02-23T08:05:25;95204.59;;;10.38;51.72
78894;BME280;68282;42.698;23.350;2024-02-23T08:07:50;95197.13;;;10.45;51.83
78894;BME280;68282;42.698;23.350;2024-02-23T08:10:16;95196.03;;;10.58;52.32
78894;BME280;68282;42.698;23.350;2024-02-23T08:12:42;95206.19;;;10.63;52.12
78894;BME280;68282;42.698;23.350;2024-02-23T08:15:07;95212.00;;;10.55;52.40
78894;BME280;68282;42.698;23.350;2024-02-23T08:17:33;95206.94;;;10.58;52.37
78894;BME280;68282;42.698;23.350;2024-02-23T08:19:58;95203.91;;;10.72;53.15
78894;BME280;68282;42.698;23.350;2024-02-23T08:22:24;95195.44;;;10.85;52.25
78894;BME280;68282;42.698;23.350;2024-02-23T08:24:49;95195.97;;;10.99;52.30
78894;BME280;68282;42.698;23.350;2024-02-23T08:27:15;95193.94;;;11.06;52.00
78894;BME280;68282;42.698;23.350;2024-02-23T08:29:40;95183.88;;;11.07;52.17
78894;BME280;68282;42.698;23.350;2024-02-23T08:32:07;95194.84;;;11.12;51.75
78894;BME280;68282;42.698;23.350;2024-02-23T08:34:32;95202.13;;;11.23;51.61
78894;BME280;68282;42.698;23.350;2024-02-23T08:37:00;95201.41;;;11.28;50.82
78894;BME280;68282;42.698;23.350;2024-02-23T08:39:25;95198.91;;;11.26;50.56
78894;BME280;68282;42.698;23.350;2024-02-23T08:41:52;95201.72;;;11.32;49.92
78894;BME280;68282;42.698;23.350;2024-02-23T08:44:22;95192.88;;;11.41;49.98
78894;BME280;68282;42.698;23.350;2024-02-23T08:46:52;95181.97;;;11.41;49.92
78894;BME280;68282;42.698;23.350;2024-02-23T08:49:19;95170.13;;;11.48;49.41
78894;BME280;68282;42.698;23.350;2024-02-23T09:13:55;95176.66;;;12.42;46.97
78894;BME280;68282;42.698;23.350;2024-02-23T09:16:22;95179.03;;;12.61;46.73
78894;BME280;68282;42.698;23.350;2024-02-23T09:18:53;95191.47;;;12.74;46.01
78894;BME280;68282;42.698;23.350;2024-02-23T09:21:18;95175.94;;;12.74;45.31
78894;BME280;68282;42.698;23.350;2024-02-23T09:23:47;95158.88;;;12.62;44.60
78894;BME280;68282;42.698;23.350;2024-02-23T09:26:15;95192.69;;;12.83;45.54
78894;BME280;68282;42.698;23.350;2024-02-23T09:28:42;95183.97;;;12.86;45.54
78894;BME280;68282;42.698;23.350;2024-02-23T09:31:10;95178.00;;;12.89;44.31
78894;BME280;68282;42.698;23.350;2024-02-23T09:33:36;95164.31;;;12.84;43.71
78894;BME280;68282;42.698;23.350;2024-02-23T09:36:02;95168.56;;;13.02;43.85
78894;BME280;68282;42.698;23.350;2024-02-23T09:38:28;95169.44;;;13.08;43.52
78894;BME280;68282;42.698;23.350;2024-02-23T09:40:57;95175.63;;;13.25;43.40
78894;BME280;68282;42.698;23.350;2024-02-23T09:43:28;95157.78;;;13.18;42.16
78894;BME280;68282;42.698;23.350;2024-02-23T09:45:59;95173.09;;;13.19;43.13
78894;BME280;68282;42.698;23.350;2024-02-23T09:48:25;95164.53;;;13.10;43.55
78894;BME280;68282;42.698;23.350;2024-02-23T09:50:52;95178.69;;;13.34;41.94
78894;BME280;68282;42.698;23.350;2024-02-23T09:53:19;95155.22;;;13.33;42.21
78894;BME280;68282;42.698;23.350;2024-02-23T09:55:49;95152.03;;;13.47;41.89
78894;BME280;68282;42.698;23.350;2024-02-23T09:58:19;95148.78;;;13.44;41.77
78894;BME280;68282;42.698;23.350;2024-02-23T10:00:49;95142.81;;;13.53;41.14
78894;BME280;68282;42.698;23.350;2024-02-23T10:03:18;95153.06;;;13.73;41.81
78894;BME280;68282;42.698;23.350;2024-02-23T10:05:51;95140.75;;;13.70;40.64
78894;BME280;68282;42.698;23.350;2024-02-23T10:08:16;95145.41;;;13.70;40.74
78894;BME280;68282;42.698;23.350;2024-02-23T10:10:45;95138.91;;;13.81;40.87
78894;BME280;68282;42.698;23.350;2024-02-23T10:13:11;95134.03;;;13.83;41.43
78894;BME280;68282;42.698;23.350;2024-02-23T10:15:37;95146.97;;;13.98;41.02
78894;BME280;68282;42.698;23.350;2024-02-23T10:18:04;95145.06;;;14.04;40.61
78894;BME280;68282;42.698;23.350;2024-02-23T10:20:30;95138.53;;;14.05;40.74
78894;BME280;68282;42.698;23.350;2024-02-23T10:22:56;95137.41;;;14.06;39.58
78894;BME280;68282;42.698;23.350;2024-02-23T10:25:22;95139.63;;;14.09;40.06
78894;BME280;68282;42.698;23.350;2024-02-23T10:27:48;95128.16;;;14.17;40.65
78894;BME280;68282;42.698;23.350;2024-02-23T10:30:14;95135.06;;;14.30;40.43
78894;BME280;68282;42.698;23.350;2024-02-23T10:32:43;95094.81;;;14.20;40.04
78894;BME280;68282;42.698;23.350;2024-02-23T10:35:17;95105.59;;;14.43;39.72
78894;BME280;68282;42.698;23.350;2024-02-23T10:37:44;95119.31;;;14.53;39.89
78894;BME280;68282;42.698;23.350;2024-02-23T10:40:12;95115.75;;;14.63;38.66
78894;BME280;68282;42.698;23.350;2024-02-23T10:42:44;95108.59;;;14.51;37.90
78894;BME280;68282;42.698;23.350;2024-02-23T10:45:17;95103.16;;;14.62;38.01
78894;BME280;68282;42.698;23.350;2024-02-23T10:47:48;95106.22;;;14.71;36.11
78894;BME280;68282;42.698;23.350;2024-02-23T10:50:14;95112.56;;;14.92;35.34
78894;BME280;68282;42.698;23.350;2024-02-23T10:52:45;95093.59;;;14.64;35.61
78894;BME280;68282;42.698;23.350;2024-02-23T10:55:12;95100.22;;;14.74;36.25
78894;BME280;68282;42.698;23.350;2024-02-23T10:57:38;95094.50;;;14.91;36.45
78894;BME280;68282;42.698;23.350;2024-02-23T11:00:08;95090.94;;;15.00;36.00
78894;BME280;68282;42.698;23.350;2024-02-23T11:02:46;95082.72;;;15.11;35.41
78894;BME280;68282;42.698;23.350;2024-02-23T11:05:15;95072.88;;;15.15;35.20
78894;BME280;68282;42.698;23.350;2024-02-23T11:07:41;95075.88;;;14.93;34.53
78894;BME280;68282;42.698;23.350;2024-02-23T11:10:13;95061.63;;;14.91;34.78
78894;BME280;68282;42.698;23.350;2024-02-23T11:12:39;95067.41;;;15.05;35.18
78894;BME280;68282;42.698;23.350;2024-02-23T11:15:26;95046.03;;;14.91;34.99
78894;BME280;68282;42.698;23.350;2024-02-23T11:17:52;95057.53;;;15.04;34.98
78894;BME280;68282;42.698;23.350;2024-02-23T11:20:18;95041.91;;;14.94;34.74
78894;BME280;68282;42.698;23.350;2024-02-23T11:22:43;95047.66;;;15.03;35.12
78894;BME280;68282;42.698;23.350;2024-02-23T11:25:09;95046.84;;;15.33;34.93
78894;BME280;68282;42.698;23.350;2024-02-23T11:27:37;95045.47;;;15.41;34.23
78894;BME280;68282;42.698;23.350;2024-02-23T11:30:06;95047.88;;;15.63;34.03
78894;BME280;68282;42.698;23.350;2024-02-23T11:32:46;95041.56;;;15.73;33.94
78894;BME280;68282;42.698;23.350;2024-02-23T11:35:17;95022.34;;;15.83;32.94
78894;BME280;68282;42.698;23.350;2024-02-23T11:37:52;95047.03;;;15.78;33.34
78894;BME280;68282;42.698;23.350;2024-02-23T11:40:25;95024.00;;;15.84;32.98
78894;BME280;68282;42.698;23.350;2024-02-23T11:42:51;95037.66;;;16.05;32.47
78894;BME280;68282;42.698;23.350;2024-02-23T11:45:17;95028.56;;;16.10;32.56
78894;BME280;68282;42.698;23.350;2024-02-23T11:47:42;95019.22;;;16.16;32.71
78894;BME280;68282;42.698;23.350;2024-02-23T11:50:09;95028.41;;;16.41;31.67
78894;BME280;68282;42.698;23.350;2024-02-23T11:52:37;95023.78;;;16.36;31.54
78894;BME280;68282;42.698;23.350;2024-02-23T11:55:03;95025.06;;;16.49;31.16
78894;BME280;68282;42.698;23.350;2024-02-23T11:57:33;95014.94;;;16.49;30.99
78894;BME280;68282;42.698;23.350;2024-02-23T12:00:01;95014.31;;;16.63;31.29
78894;BME280;68282;42.698;23.350;2024-02-23T12:02:28;95024.91;;;16.80;30.73
78894;BME280;68282;42.698;23.350;2024-02-23T12:04:54;95020.75;;;16.82;31.16
78894;BME280;68282;42.698;23.350;2024-02-23T12:07:20;95014.34;;;16.92;34.58
78894;BME280;68282;42.698;23.350;2024-02-23T12:09:47;95007.22;;;16.91;31.69
78894;BME280;68282;42.698;23.350;2024-02-23T12:12:13;95000.06;;;16.95;30.49
78894;BME280;68282;42.698;23.350;2024-02-23T12:14:40;95000.53;;;17.08;30.11
78894;BME280;68282;42.698;23.350;2024-02-23T12:17:07;95001.84;;;17.15;30.12
78894;BME280;68282;42.698;23.350;2024-02-23T12:19:38;95009.50;;;17.19;29.61
78894;BME280;68282;42.698;23.350;2024-02-23T12:22:05;94994.78;;;17.04;29.79
78894;BME280;68282;42.698;23.350;2024-02-23T12:24:31;94997.88;;;16.97;30.12
78894;BME280;68282;42.698;23.350;2024-02-23T12:26:57;95000.03;;;17.00;29.95
78894;BME280;68282;42.698;23.350;2024-02-23T12:29:23;94976.19;;;16.91;30.01
78894;BME280;68282;42.698;23.350;2024-02-23T12:31:49;94981.28;;;16.68;30.44
78894;BME280;68282;42.698;23.350;2024-02-23T12:34:16;94981.47;;;16.82;30.43
78894;BME280;68282;42.698;23.350;2024-02-23T12:36:42;94978.59;;;16.63;30.79
78894;BME280;68282;42.698;23.350;2024-02-23T12:41:52;94959.41;;;16.58;31.25
78894;BME280;68282;42.698;23.350;2024-02-23T12:44:17;94968.72;;;16.62;31.57
78894;BME280;68282;42.698;23.350;2024-02-23T12:46:43;94976.97;;;16.62;31.93
78894;BME280;68282;42.698;23.350;2024-02-23T12:49:08;94960.56;;;16.51;32.17
78894;BME280;68282;42.698;23.350;2024-02-23T12:51:34;94965.47;;;16.54;31.80
78894;BME280;68282;42.698;23.350;2024-02-23T12:54:00;94957.91;;;16.41;32.54
78894;BME280;68282;42.698;23.350;2024-02-23T12:56:25;94966.69;;;16.38;32.52
78894;BME280;68282;42.698;23.350;2024-02-23T12:58:51;94975.31;;;16.16;32.72
78894;BME280;68282;42.698;23.350;2024-02-23T13:01:19;94964.63;;;16.14;32.31
78894;BME280;68282;42.698;23.350;2024-02-23T13:03:44;94951.75;;;16.15;32.16
78894;BME280;68282;42.698;23.350;2024-02-23T13:06:10;94965.16;;;16.16;32.56
78894;BME280;68282;42.698;23.350;2024-02-23T13:08:35;94961.94;;;16.09;32.03
78894;BME280;68282;42.698;23.350;2024-02-23T13:11:01;94961.88;;;16.14;32.35
78894;BME280;68282;42.698;23.350;2024-02-23T13:13:27;94955.31;;;16.10;32.56
78894;BME280;68282;42.698;23.350;2024-02-23T13:15:54;94958.34;;;16.08;32.88
78894;BME280;68282;42.698;23.350;2024-02-23T13:18:20;94971.19;;;16.18;32.67
78894;BME280;68282;42.698;23.350;2024-02-23T13:20:46;94953.41;;;16.11;33.03
78894;BME280;68282;42.698;23.350;2024-02-23T13:23:12;94950.66;;;16.11;34.06
78894;BME280;68282;42.698;23.350;2024-02-23T13:25:39;94961.06;;;16.14;34.18
78894;BME280;68282;42.698;23.350;2024-02-23T13:28:05;94961.88;;;16.14;33.96
78894;BME280;68282;42.698;23.350;2024-02-23T13:30:31;94961.03;;;16.19;33.27